Time;durP1;ratioP1;P1;durP2;ratioP2;P2;SDS_P1;SDS_P2;PMS_P1;PMS_P2;Temp;Humidity;BMP_temperature;BMP_pressure;BME280_temperature;BME280_humidity;BME280_pressure;Samples;Min_cycle;Max_cycle;Signal;HPM_P1;HPM_P2
2023/04/25 00:02:19;;;;;;;5.22;3.45;;;9.10;99.90;;;;;;6185852;23;20360;-87
2023/04/25 00:04:46;;;;;;;6.70;4.63;;;9.10;99.90;;;;;;6185659;23;20005;-88
2023/04/25 00:07:12;;;;;;;6.88;3.75;;;9.10;99.90;;;;;;6159385;23;20063;-86
2023/04/25 00:09:38;;;;;;;9.43;4.10;;;9.10;99.90;;;;;;6185095;23;20008;-86
2023/04/25 00:12:03;;;;;;;8.07;3.95;;;9.10;99.90;;;;;;6185545;23;20425;-87
2023/04/25 00:14:30;;;;;;;10.50;4.47;;;9.10;99.90;;;;;;6184084;23;20024;-87
2023/04/25 00:16:55;;;;;;;5.10;4.00;;;9.10;99.90;;;;;;6184639;23;20005;-85
2023/04/25 00:19:21;;;;;;;10.57;4.43;;;9.10;99.90;;;;;;6183234;23;20451;-87
2023/04/25 00:21:51;;;;;;;7.40;4.55;;;9.10;99.90;;;;;;6184764;23;20013;-88
2023/04/25 00:24:17;;;;;;;;;;;9.10;99.90;;;;;;6185062;23;20063;-85
2023/04/25 00:26:42;;;;;;;7.85;4.40;;;9.10;99.90;;;;;;6184981;23;19982;-88
2023/04/25 00:29:08;;;;;;;8.25;4.60;;;9.10;99.90;;;;;;6183358;23;20008;-88
2023/04/25 00:31:33;;;;;;;9.93;4.93;;;9.10;99.90;;;;;;6157730;23;20075;-85
2023/04/25 00:33:59;;;;;;;8.88;3.90;;;9.00;99.90;;;;;;6184315;23;20005;-85
2023/04/25 00:36:25;;;;;;;9.65;5.30;;;9.10;99.90;;;;;;6184295;23;20417;-88
2023/04/25 00:38:52;;;;;;;9.80;5.25;;;8.90;99.90;;;;;;6185099;23;20005;-88
2023/04/25 00:41:19;;;;;;;11.23;5.13;;;8.90;99.90;;;;;;6184970;23;20320;-88
2023/04/25 00:43:45;;;;;;;11.82;5.32;;;9.00;99.90;;;;;;6185146;23;20016;-85
2023/04/25 00:46:11;;;;;;;7.85;4.38;;;9.00;99.90;;;;;;6185355;23;20042;-90
2023/04/25 00:48:36;;;;;;;8.48;4.43;;;9.00;99.90;;;;;;6184587;23;20064;-87
2023/04/25 00:51:02;;;;;;;10.82;5.03;;;9.00;99.90;;;;;;6184147;23;20033;-90
2023/04/25 00:53:29;;;;;;;10.02;5.15;;;8.90;99.90;;;;;;6184531;23;20070;-88
2023/04/25 00:55:55;;;;;;;8.27;4.53;;;9.00;99.90;;;;;;6184977;23;20005;-85
2023/04/25 00:58:22;;;;;;;7.80;4.50;;;9.00;99.90;;;;;;6184952;23;20333;-86
2023/04/25 01:00:49;;;;;;;7.75;4.80;;;9.00;99.90;;;;;;6184802;23;20005;-86
2023/04/25 01:03:17;;;;;;;7.60;4.70;;;9.10;99.90;;;;;;6158651;23;20001;-85
2023/04/25 01:05:43;;;;;;;8.55;4.55;;;9.10;99.90;;;;;;6184409;23;20318;-86
2023/04/25 01:08:09;;;;;;;8.38;4.50;;;8.90;99.90;;;;;;6185635;23;20005;-88
2023/04/25 01:10:35;;;;;;;11.55;5.50;;;9.00;99.90;;;;;;6185048;23;20009;-85
2023/04/25 01:13:01;;;;;;;10.60;5.75;;;9.00;99.90;;;;;;6184886;23;20437;-89
2023/04/25 01:15:26;;;;;;;8.52;5.00;;;9.00;99.90;;;;;;6158206;23;20073;-87
2023/04/25 01:17:52;;;;;;;6.65;4.57;;;9.00;99.90;;;;;;6158039;23;20005;-88
2023/04/25 01:20:21;;;;;;;9.82;5.53;;;8.90;99.90;;;;;;6158322;23;20016;-85
2023/04/25 01:22:46;;;;;;;8.65;4.70;;;9.00;99.90;;;;;;6184601;23;20096;-86
2023/04/25 01:25:12;;;;;;;8.88;4.63;;;8.90;99.90;;;;;;6184594;23;20057;-85
2023/04/25 01:27:37;;;;;;;12.25;5.55;;;8.90;99.90;;;;;;6158370;23;20013;-86
2023/04/25 01:30:05;;;;;;;10.88;5.65;;;8.90;99.90;;;;;;6185439;23;20009;-86
2023/04/25 01:32:37;;;;;;;12.75;5.50;;;8.90;99.90;;;;;;6186974;23;20328;-86
2023/04/25 01:35:08;;;;;;;8.63;4.90;;;8.90;99.90;;;;;;6187789;23;20005;-85
2023/04/25 01:37:35;;;;;;;13.13;6.05;;;8.90;99.90;;;;;;6186590;23;19993;-85
2023/04/25 01:40:01;;;;;;;9.55;5.40;;;8.80;99.90;;;;;;6158700;23;20456;-85
2023/04/25 01:42:27;;;;;;;8.40;5.85;;;8.80;99.90;;;;;;6184806;23;20012;-89
2023/04/25 01:44:53;;;;;;;8.43;5.53;;;8.80;99.90;;;;;;6183357;23;20455;-88
2023/04/25 01:47:18;;;;;;;9.95;5.90;;;8.80;99.90;;;;;;6184220;23;20336;-85
2023/04/25 01:49:44;;;;;;;10.82;6.38;;;8.70;99.90;;;;;;6182960;23;20014;-89
2023/04/25 01:52:09;;;;;;;9.63;5.50;;;8.80;99.90;;;;;;6184000;23;20092;-88
2023/04/25 01:54:35;;;;;;;9.52;5.07;;;8.80;99.90;;;;;;6157736;23;20016;-89
2023/04/25 01:57:01;;;;;;;9.20;5.55;;;8.90;99.90;;;;;;6184053;23;20009;-87
2023/04/25 01:59:27;;;;;;;9.90;5.90;;;8.80;99.90;;;;;;6158916;23;20012;-86
2023/04/25 02:01:52;;;;;;;10.38;6.70;;;8.80;99.90;;;;;;6189068;23;20009;-86
2023/04/25 02:04:18;;;;;;;11.40;5.80;;;8.80;99.90;;;;;;6196356;23;20016;-86
2023/04/25 02:06:43;;;;;;;10.45;6.00;;;8.90;99.90;;;;;;6189511;23;20096;-86
2023/04/25 02:09:09;;;;;;;10.43;6.20;;;8.70;99.90;;;;;;6160633;23;20475;-89
2023/04/25 02:11:35;;;;;;;9.68;6.15;;;8.70;99.90;;;;;;6187112;23;20486;-89
2023/04/25 02:14:00;;;;;;;8.55;6.03;;;8.80;99.90;;;;;;6184661;23;20009;-88
2023/04/25 02:16:26;;;;;;;10.70;6.63;;;8.70;99.90;;;;;;6186169;23;20325;-87
2023/04/25 02:18:52;;;;;;;10.45;5.63;;;8.70;99.90;;;;;;6186545;23;20012;-87
2023/04/25 02:21:18;;;;;;;13.55;6.57;;;8.70;99.90;;;;;;6186266;23;20019;-87
2023/04/25 02:23:45;;;;;;;13.48;7.03;;;8.70;99.90;;;;;;6159954;23;20041;-87
2023/04/25 02:26:11;;;;;;;12.45;6.18;;;8.70;99.90;;;;;;6186280;23;20142;-86
2023/04/25 02:28:36;;;;;;;10.43;6.05;;;8.70;99.90;;;;;;6186100;23;20051;-87
2023/04/25 02:31:02;;;;;;;14.05;6.40;;;8.70;99.90;;;;;;6185916;23;19997;-88
2023/04/25 02:33:27;;;;;;;11.05;6.55;;;8.70;99.90;;;;;;6186355;23;20321;-86
2023/04/25 02:35:53;;;;;;;13.32;6.75;;;8.70;99.90;;;;;;6159925;23;20009;-85
2023/04/25 02:38:18;;;;;;;10.68;6.32;;;8.70;99.90;;;;;;6159836;23;20005;-88
2023/04/25 02:40:44;;;;;;;9.57;6.72;;;8.60;99.90;;;;;;6184016;23;20062;-87
2023/04/25 02:43:09;;;;;;;10.40;6.78;;;8.60;99.90;;;;;;6185989;23;20008;-87
2023/04/25 02:45:35;;;;;;;13.02;7.28;;;8.60;99.90;;;;;;6185566;23;20017;-86
2023/04/25 02:48:02;;;;;;;17.85;7.97;;;8.60;99.90;;;;;;6185929;23;20328;-86
2023/04/25 02:50:27;;;;;;;13.38;6.93;;;8.60;99.90;;;;;;6186093;23;20009;-86
2023/04/25 02:52:53;;;;;;;12.95;7.13;;;8.60;99.90;;;;;;6159303;23;20100;-87
2023/04/25 02:55:18;;;;;;;11.45;7.25;;;8.60;99.90;;;;;;6185581;23;20019;-87
2023/04/25 02:57:44;;;;;;;13.23;6.95;;;8.60;99.90;;;;;;6185633;23;20488;-86
2023/04/25 03:00:11;;;;;;;11.57;6.90;;;8.60;99.90;;;;;;6157598;23;20344;-87
2023/04/25 03:02:37;;;;;;;12.68;6.88;;;8.60;99.90;;;;;;6185234;23;20029;-85
2023/04/25 03:05:03;;;;;;;11.50;7.05;;;8.60;99.90;;;;;;6179867;23;20324;-86
2023/04/25 03:07:28;;;;;;;12.07;7.35;;;8.60;99.90;;;;;;6144836;23;20092;-86
2023/04/25 03:09:55;;;;;;;12.50;6.78;;;8.60;99.90;;;;;;6171134;23;20001;-84
2023/04/25 03:12:20;;;;;;;10.50;7.35;;;8.60;99.90;;;;;;6171811;23;20012;-85
2023/04/25 03:14:46;;;;;;;11.80;7.70;;;8.60;99.90;;;;;;6170943;23;20009;-86
2023/04/25 03:17:11;;;;;;;14.25;7.35;;;8.60;99.90;;;;;;6171513;23;20005;-87
2023/04/25 03:19:37;;;;;;;11.00;6.78;;;8.50;99.90;;;;;;6173309;23;20491;-86
2023/04/25 03:22:02;;;;;;;12.80;7.00;;;8.60;99.90;;;;;;6171391;23;20008;-86
2023/04/25 03:24:28;;;;;;;11.75;6.82;;;8.50;99.90;;;;;;6174395;23;20370;-87
2023/04/25 03:26:53;;;;;;;7.63;6.55;;;8.50;99.90;;;;;;6157524;23;20005;-87
2023/04/25 03:29:19;;;;;;;11.52;6.93;;;8.40;99.90;;;;;;6185048;23;20434;-86
2023/04/25 03:31:45;;;;;;;12.05;7.18;;;8.40;99.90;;;;;;6184590;23;20084;-87
2023/04/25 03:34:10;;;;;;;11.90;7.00;;;8.50;99.90;;;;;;6184349;23;20000;-88
2023/04/25 03:36:36;;;;;;;14.32;7.53;;;8.50;99.90;;;;;;6184275;23;20005;-86
2023/04/25 03:39:01;;;;;;;14.32;7.38;;;8.40;99.90;;;;;;6184631;23;20432;-87
2023/04/25 03:41:28;;;;;;;9.25;6.90;;;8.40;99.90;;;;;;6158051;23;20113;-86
2023/04/25 03:43:53;;;;;;;14.10;7.63;;;8.50;99.90;;;;;;6184256;23;20001;-89
2023/04/25 03:46:18;;;;;;;11.95;7.47;;;8.40;99.90;;;;;;6158397;23;20024;-87
2023/04/25 03:48:44;;;;;;;10.90;7.03;;;8.40;99.90;;;;;;6157900;23;20036;-84
2023/04/25 03:51:10;;;;;;;10.65;6.65;;;8.40;99.90;;;;;;6184037;23;20404;-88
2023/04/25 03:53:35;;;;;;;12.57;7.25;;;8.40;99.90;;;;;;6184107;23;20013;-88
2023/04/25 03:56:00;;;;;;;9.82;6.88;;;8.40;99.90;;;;;;6184808;23;20544;-85
2023/04/25 03:58:26;;;;;;;13.50;7.22;;;8.40;99.90;;;;;;6157718;23;20057;-85
2023/04/25 04:00:51;;;;;;;10.55;6.80;;;8.40;99.90;;;;;;6183962;23;20382;-86
2023/04/25 04:03:17;;;;;;;8.88;6.00;;;8.40;99.90;;;;;;6184354;23;20436;-87
2023/04/25 04:05:42;;;;;;;12.45;6.75;;;8.30;99.90;;;;;;6183998;23;20009;-87
2023/04/25 04:08:08;;;;;;;13.68;7.47;;;8.30;99.90;;;;;;6157334;23;20321;-86
2023/04/25 04:10:34;;;;;;;11.43;6.72;;;8.40;99.90;;;;;;6183336;23;20005;-85
2023/04/25 04:13:00;;;;;;;10.82;6.53;;;8.40;99.90;;;;;;6183733;23;20456;-86
2023/04/25 04:15:25;;;;;;;8.60;6.75;;;8.40;99.90;;;;;;6182982;23;20033;-87
2023/04/25 04:17:51;;;;;;;10.25;6.63;;;8.40;99.90;;;;;;6184468;23;20076;-86
2023/04/25 04:20:16;;;;;;;10.52;6.53;;;8.40;99.90;;;;;;6184948;23;20549;-84
2023/04/25 04:22:41;;;;;;;11.55;6.25;;;8.40;99.90;;;;;;6184717;23;20009;-87
2023/04/25 04:25:07;;;;;;;7.32;5.80;;;8.40;99.90;;;;;;6184663;23;20080;-85
2023/04/25 04:27:34;;;;;;;13.00;6.07;;;8.40;99.90;;;;;;6184487;23;20013;-88
2023/04/25 04:30:00;;;;;;;15.32;7.07;;;8.50;99.90;;;;;;6184030;23;20009;-85
2023/04/25 04:32:25;;;;;;;13.98;6.93;;;8.50;99.90;;;;;;6184941;23;20012;-88
2023/04/25 04:34:52;;;;;;;10.27;6.38;;;8.60;99.90;;;;;;6184592;23;20001;-87
2023/04/25 04:37:17;;;;;;;9.88;5.80;;;8.60;99.90;;;;;;6184729;23;20024;-84
2023/04/25 04:39:43;;;;;;;10.35;6.68;;;8.60;99.90;;;;;;6184477;23;20412;-85
2023/04/25 04:42:08;;;;;;;10.68;6.10;;;8.50;99.90;;;;;;6184643;23;20013;-85
2023/04/25 04:44:35;;;;;;;9.40;6.07;;;8.60;99.90;;;;;;6184238;23;20625;-85
2023/04/25 04:47:00;;;;;;;9.27;6.13;;;8.60;99.90;;;;;;6184615;23;20012;-86
2023/04/25 04:49:26;;;;;;;9.48;5.95;;;8.60;99.90;;;;;;6158064;23;20009;-87
2023/04/25 04:51:52;;;;;;;9.98;6.00;;;8.70;99.90;;;;;;6184639;23;20051;-87
2023/04/25 04:54:17;;;;;;;8.70;5.25;;;8.70;99.90;;;;;;6184180;23;20043;-85
2023/04/25 04:56:43;;;;;;;10.75;6.82;;;8.70;99.90;;;;;;6184042;23;20004;-88
2023/04/25 04:59:08;;;;;;;10.65;5.90;;;8.70;99.90;;;;;;6184437;23;20044;-86
2023/04/25 05:01:37;;;;;;;7.97;6.60;;;8.70;99.90;;;;;;6184384;23;20005;-84
2023/04/25 05:04:03;;;;;;;9.52;6.53;;;8.70;99.90;;;;;;6184119;23;20000;-86
2023/04/25 05:06:29;;;;;;;12.23;6.13;;;8.80;99.90;;;;;;6184765;23;20001;-88
2023/04/25 05:08:55;;;;;;;11.95;6.18;;;8.70;99.90;;;;;;6184135;23;20031;-88
2023/04/25 05:11:22;;;;;;;15.27;7.03;;;8.80;99.90;;;;;;6157636;23;20051;-85
2023/04/25 05:13:49;;;;;;;11.32;6.90;;;8.80;99.90;;;;;;6184803;23;20009;-85
2023/04/25 05:16:15;;;;;;;15.68;7.85;;;8.80;99.90;;;;;;6187643;23;20111;-84
2023/04/25 05:18:41;;;;;;;12.82;6.97;;;8.80;99.90;;;;;;6187265;23;20439;-84
2023/04/25 05:21:06;;;;;;;10.93;7.22;;;8.80;99.90;;;;;;6184176;23;20009;-87
2023/04/25 05:23:32;;;;;;;12.90;8.50;;;8.80;99.90;;;;;;6183389;23;20074;-87
2023/04/25 05:25:58;;;;;;;15.30;8.27;;;8.90;99.90;;;;;;6182580;23;20075;-87
2023/04/25 05:28:24;;;;;;;11.40;8.27;;;9.00;99.90;;;;;;6182955;23;20424;-87
2023/04/25 05:30:50;;;;;;;14.80;8.95;;;9.00;99.90;;;;;;6182756;23;20456;-85
2023/04/25 05:33:16;;;;;;;14.30;8.73;;;9.10;99.90;;;;;;6182900;23;20337;-87
2023/04/25 05:35:42;;;;;;;11.75;8.48;;;9.10;99.90;;;;;;6182367;23;20051;-88
2023/04/25 05:38:07;;;;;;;15.00;8.50;;;9.10;99.90;;;;;;6183064;23;20090;-87
2023/04/25 05:40:33;;;;;;;13.65;8.77;;;9.10;99.90;;;;;;6184301;23;20001;-86
2023/04/25 05:42:58;;;;;;;14.93;9.07;;;9.10;99.90;;;;;;6184187;23;20013;-86
2023/04/25 05:45:24;;;;;;;15.80;8.80;;;9.20;99.90;;;;;;6184716;23;20099;-87
2023/04/25 05:47:49;;;;;;;17.00;9.52;;;9.20;99.90;;;;;;6158583;23;20011;-86
2023/04/25 05:50:15;;;;;;;17.70;9.07;;;9.20;99.90;;;;;;6184286;23;20013;-88
2023/04/25 05:52:40;;;;;;;18.85;9.20;;;9.20;99.90;;;;;;6184606;23;20161;-89
2023/04/25 05:55:06;;;;;;;13.07;8.98;;;9.20;99.90;;;;;;6183860;23;20009;-82
2023/04/25 05:57:32;;;;;;;16.48;9.20;;;9.20;99.90;;;;;;6184097;23;20001;-86
2023/04/25 05:59:57;;;;;;;14.85;8.63;;;9.10;99.90;;;;;;6184050;23;20033;-86
2023/04/25 06:02:23;;;;;;;11.65;8.73;;;9.10;99.90;;;;;;6184234;23;20005;-87
2023/04/25 06:04:51;;;;;;;13.27;9.07;;;9.10;99.90;;;;;;6184459;23;20028;-88
2023/04/25 06:07:17;;;;;;;13.15;9.10;;;9.00;99.90;;;;;;6184394;23;20014;-87
2023/04/25 06:09:44;;;;;;;16.52;9.80;;;9.00;99.90;;;;;;6184180;23;20006;-90
2023/04/25 06:12:09;;;;;;;14.02;9.23;;;9.00;99.90;;;;;;6185176;23;20076;-87
2023/04/25 06:14:35;;;;;;;15.00;8.60;;;9.10;99.90;;;;;;6184234;23;20087;-89
2023/04/25 06:17:06;;;;;;;13.70;8.75;;;9.00;99.90;;;;;;6184063;23;20041;-88
2023/04/25 06:19:32;;;;;;;11.95;8.68;;;9.10;99.90;;;;;;6156492;23;20332;-88
2023/04/25 06:21:58;;;;;;;14.23;8.82;;;8.90;99.90;;;;;;6196619;23;20032;-87
2023/04/25 06:24:23;;;;;;;12.32;8.63;;;8.90;99.90;;;;;;6187546;23;20015;-87
2023/04/25 06:26:49;;;;;;;10.70;8.00;;;8.90;99.90;;;;;;6187908;23;20060;-89
2023/04/25 06:29:14;;;;;;;12.93;8.02;;;8.80;99.90;;;;;;6187755;23;20009;-89
2023/04/25 06:31:40;;;;;;;12.50;8.63;;;8.70;99.90;;;;;;6188139;23;20079;-90
2023/04/25 06:34:05;;;;;;;13.18;8.77;;;8.70;99.90;;;;;;6214230;23;20448;-90
2023/04/25 06:36:31;;;;;;;11.38;8.40;;;8.70;99.90;;;;;;6188407;23;20011;-88
2023/04/25 06:38:57;;;;;;;13.85;8.85;;;8.70;99.90;;;;;;6214181;23;20092;-89
2023/04/25 06:41:22;;;;;;;18.17;8.25;;;8.70;99.90;;;;;;6187947;23;20004;-88
2023/04/25 06:43:47;;;;;;;17.90;7.88;;;8.70;99.90;;;;;;6187349;23;20028;-87
2023/04/25 06:46:13;;;;;;;11.15;7.07;;;8.90;99.90;;;;;;6213755;23;20034;-86
2023/04/25 06:48:38;;;;;;;15.15;8.30;;;9.00;99.90;;;;;;6213978;23;20012;-88
2023/04/25 06:51:04;;;;;;;14.90;7.50;;;9.00;99.90;;;;;;6214272;23;20039;-87
2023/04/25 06:53:30;;;;;;;16.33;8.25;;;9.20;99.90;;;;;;6215508;23;20468;-86
2023/04/25 06:55:55;;;;;;;13.10;6.72;;;9.30;99.90;;;;;;6214225;23;20005;-87
2023/04/25 06:58:21;;;;;;;14.35;6.38;;;9.30;99.90;;;;;;6215990;23;20058;-88
2023/04/25 07:00:46;;;;;;;20.83;7.47;;;9.40;99.90;;;;;;6189121;23;20011;-87
2023/04/25 07:03:12;;;;;;;19.98;7.20;;;9.40;99.90;;;;;;6215878;23;20007;-87
2023/04/25 07:05:37;;;;;;;16.25;6.68;;;9.30;99.90;;;;;;6215816;23;20040;-87
2023/04/25 07:08:03;;;;;;;17.85;6.97;;;9.30;99.90;;;;;;6215583;23;20081;-88
2023/04/25 07:10:29;;;;;;;19.90;7.15;;;9.30;99.90;;;;;;6215694;23;20000;-87
2023/04/25 07:12:55;;;;;;;17.98;6.93;;;9.10;99.90;;;;;;6215091;23;20005;-87
2023/04/25 07:15:20;;;;;;;22.83;7.88;;;9.00;99.90;;;;;;6215706;23;20005;-86
2023/04/25 07:17:46;;;;;;;18.17;7.18;;;9.00;99.90;;;;;;6215173;23;20011;-88
2023/04/25 07:20:12;;;;;;;22.35;6.85;;;9.10;99.90;;;;;;6189048;23;20012;-87
2023/04/25 07:22:37;;;;;;;23.10;7.43;;;9.00;99.90;;;;;;6215696;23;20011;-88
2023/04/25 07:25:04;;;;;;;26.15;7.38;;;9.10;99.90;;;;;;6214884;23;20039;-86
2023/04/25 07:27:30;;;;;;;20.83;7.15;;;9.30;99.90;;;;;;6215474;23;20076;-87
2023/04/25 07:29:56;;;;;;;24.27;7.85;;;9.30;99.90;;;;;;6215478;23;20005;-86
2023/04/25 07:32:21;;;;;;;28.30;7.45;;;9.60;99.90;;;;;;6215726;23;20000;-87
2023/04/25 07:34:47;;;;;;;29.65;7.47;;;9.80;99.90;;;;;;6214822;23;20015;-87
2023/04/25 07:37:14;;;;;;;21.55;6.97;;;9.80;99.90;;;;;;6215386;23;20071;-86
2023/04/25 07:39:39;;;;;;;22.55;7.35;;;9.80;99.90;;;;;;6215069;23;20709;-86
2023/04/25 07:42:07;;;;;;;22.05;6.68;;;9.90;99.90;;;;;;6189032;23;20058;-85
2023/04/25 07:44:38;;;;;;;23.95;6.85;;;9.60;99.90;;;;;;6188399;23;20004;-87
2023/04/25 07:47:04;;;;;;;;;;;9.70;99.90;;;;;;6189301;23;20012;-86
2023/04/25 07:49:30;;;;;;;21.58;6.25;;;9.70;99.90;;;;;;6188792;23;19910;-86
2023/04/25 07:51:55;;;;;;;21.00;7.38;;;9.90;99.90;;;;;;6216486;23;20004;-85
2023/04/25 07:54:21;;;;;;;20.25;6.30;;;9.90;99.90;;;;;;6215222;23;20012;-84
2023/04/25 07:56:46;;;;;;;22.08;6.72;;;9.90;99.90;;;;;;6216015;23;20011;-85
2023/04/25 07:59:12;;;;;;;19.23;6.70;;;10.00;99.90;;;;;;6215629;23;20001;-86
2023/04/25 08:01:37;;;;;;;24.85;7.22;;;10.00;99.90;;;;;;6214767;23;20047;-85
2023/04/25 08:04:03;;;;;;;18.45;6.68;;;10.00;99.90;;;;;;6214935;23;20008;-88
2023/04/25 08:06:28;;;;;;;25.35;7.07;;;9.90;99.90;;;;;;6214789;23;20001;-88
2023/04/25 08:08:54;;;;;;;22.25;6.70;;;9.90;99.90;;;;;;6216550;23;20428;-87
2023/04/25 08:11:20;;;;;;;20.38;6.43;;;9.90;99.90;;;;;;6216452;23;20009;-87
2023/04/25 08:13:45;;;;;;;19.73;5.53;;;10.00;99.90;;;;;;6187767;23;20363;-87
2023/04/25 08:16:11;;;;;;;18.58;6.20;;;10.10;99.90;;;;;;6215181;23;20007;-88
2023/04/25 08:18:36;;;;;;;18.70;6.22;;;9.90;99.90;;;;;;6215321;23;20373;-87
2023/04/25 08:21:02;;;;;;;21.10;6.18;;;10.00;99.90;;;;;;6214221;23;20000;-87
2023/04/25 08:23:27;;;;;;;20.50;5.70;;;10.10;99.90;;;;;;6188274;23;20008;-87
2023/04/25 08:25:53;;;;;;;17.85;5.82;;;10.00;99.90;;;;;;6214923;23;20009;-87
2023/04/25 08:28:18;;;;;;;17.52;5.88;;;9.90;99.90;;;;;;6214808;23;20369;-88
2023/04/25 08:30:44;;;;;;;19.90;5.82;;;10.00;99.90;;;;;;6188201;23;20009;-88
2023/04/25 08:33:10;;;;;;;22.02;6.25;;;10.10;99.90;;;;;;6215001;23;20324;-87
2023/04/25 08:35:36;;;;;;;18.10;5.45;;;10.10;99.90;;;;;;6188999;23;20004;-87
2023/04/25 08:38:01;;;;;;;20.05;5.68;;;10.80;99.90;;;;;;6188562;23;20009;-87
2023/04/25 08:40:30;;;;;;;24.98;6.15;;;11.50;99.90;;;;;;6214652;23;20420;-89
2023/04/25 08:43:03;;;;;;;21.55;6.45;;;12.60;99.90;;;;;;6188157;23;20005;-87
2023/04/25 08:45:31;;;;;;;18.77;5.57;;;12.90;99.90;;;;;;6188748;23;20487;-88
2023/04/25 08:47:57;;;;;;;22.40;5.38;;;12.30;99.90;;;;;;6188185;23;20321;-87
2023/04/25 08:50:23;;;;;;;16.58;5.55;;;12.50;99.90;;;;;;6214838;23;20000;-88
2023/04/25 08:52:52;;;;;;;32.17;5.25;;;13.10;99.90;;;;;;6188553;23;20012;-90
2023/04/25 08:55:18;;;;;;;12.75;4.32;;;13.60;99.90;;;;;;6188321;23;20103;-88
2023/04/25 08:57:44;;;;;;;20.17;5.68;;;13.80;99.90;;;;;;6225455;23;20011;-87
2023/04/25 09:00:12;;;;;;;14.32;4.32;;;13.90;99.90;;;;;;6226692;23;20008;-86
2023/04/25 09:02:39;;;;;;;9.70;3.67;;;14.00;99.90;;;;;;6198515;23;20000;-86
2023/04/25 09:05:06;;;;;;;16.42;5.30;;;14.30;99.90;;;;;;6214751;23;20035;-87
2023/04/25 09:07:32;;;;;;;20.10;4.95;;;13.30;99.90;;;;;;6217185;23;20004;-82
2023/04/25 09:10:01;;;;;;;16.33;4.68;;;13.20;99.90;;;;;;6215269;23;20015;-82
2023/04/25 09:12:29;;;;;;;15.70;4.57;;;13.40;99.90;;;;;;6215477;23;20020;-86
2023/04/25 09:15:10;;;;;;;17.15;4.30;;;13.00;99.90;;;;;;6221924;23;20001;-82
2023/04/25 09:17:40;;;;;;;19.60;4.40;;;13.50;99.90;;;;;;6224551;23;20050;-85
2023/04/25 09:20:10;;;;;;;18.60;4.20;;;14.00;99.90;;;;;;6227614;23;20004;-85
2023/04/25 09:22:36;;;;;;;16.60;4.82;;;14.30;99.40;;;;;;6213913;23;20277;-84
2023/04/25 09:25:04;;;;;;;14.52;4.20;;;14.40;99.90;;;;;;6224991;23;20078;-85
2023/04/25 09:27:30;;;;;;;14.65;4.72;;;14.50;99.80;;;;;;6226310;23;20008;-86
2023/04/25 09:30:01;;;;;;;16.05;4.72;;;13.50;99.00;;;;;;6225384;23;20059;-87
2023/04/25 09:32:27;;;;;;;20.13;4.75;;;12.30;99.90;;;;;;6225360;23;20023;-87
2023/04/25 09:34:55;;;;;;;13.15;4.07;;;12.40;99.90;;;;;;6200041;23;20432;-84
2023/04/25 09:37:26;;;;;;;11.45;4.10;;;12.20;99.90;;;;;;6223013;23;20008;-86
2023/04/25 09:39:58;;;;;;;14.15;3.70;;;13.00;99.90;;;;;;6214480;23;20075;-85
2023/04/25 09:42:25;;;;;;;9.05;3.72;;;14.00;99.80;;;;;;6214818;23;20487;-86
2023/04/25 09:44:55;;;;;;;10.13;4.18;;;12.80;97.90;;;;;;6214898;23;20012;-86
2023/04/25 09:47:24;;;;;;;14.00;4.00;;;12.70;99.70;;;;;;6214924;23;20056;-85
2023/04/25 09:49:51;;;;;;;13.45;4.68;;;13.10;99.00;;;;;;6187414;23;20103;-86
2023/04/25 09:52:18;;;;;;;13.07;4.45;;;12.90;99.10;;;;;;6187741;23;20009;-85
2023/04/25 09:54:48;;;;;;;15.77;4.57;;;12.80;99.50;;;;;;6187805;23;20016;-86
2023/04/25 09:57:18;;;;;;;13.90;3.85;;;12.60;99.90;;;;;;6214735;23;20004;-87
2023/04/25 09:59:45;;;;;;;12.75;3.95;;;12.30;99.90;;;;;;6215087;23;20009;-85
2023/04/25 10:02:12;;;;;;;14.30;4.20;;;12.50;99.90;;;;;;6188079;23;20474;-85
2023/04/25 10:04:38;;;;;;;10.98;4.18;;;13.10;99.90;;;;;;6214723;23;20016;-85
2023/04/25 10:07:08;;;;;;;14.50;4.65;;;13.50;99.90;;;;;;6214034;23;20007;-81
2023/04/25 10:09:37;;;;;;;12.73;3.88;;;13.30;99.30;;;;;;6213289;23;20028;-82
2023/04/25 10:12:03;;;;;;;10.45;3.50;;;12.60;99.50;;;;;;6214190;23;20067;-81
2023/04/25 10:14:35;;;;;;;9.15;3.45;;;12.70;99.60;;;;;;6214763;23;20376;-86
2023/04/25 10:17:01;;;;;;;8.18;3.25;;;12.50;97.70;;;;;;6187869;23;20428;-79
2023/04/25 10:19:28;;;;;;;12.55;4.13;;;12.50;98.20;;;;;;6214236;23;20000;-87
2023/04/25 10:22:14;;;;;;;15.23;4.22;;;12.60;98.10;;;;;;6215340;23;20028;-86
2023/04/25 10:24:40;;;;;;;8.73;3.53;;;12.60;98.40;;;;;;6216478;23;20368;-86
2023/04/25 10:27:07;;;;;;;22.27;5.00;;;12.70;98.50;;;;;;6190269;23;20001;-84
2023/04/25 10:29:32;;;;;;;12.25;4.03;;;13.00;98.70;;;;;;6219472;23;20007;-82
2023/04/25 10:31:58;;;;;;;15.32;3.42;;;13.00;98.30;;;;;;6215434;23;20004;-83
2023/04/25 10:40:39;;;;;;;11.23;4.05;;;11.10;99.40;;;;;;6207672;23;20021;-85
2023/04/25 10:43:38;;;;;;;10.63;3.80;;;10.10;99.90;;;;;;6186366;23;20012;-86
2023/04/25 10:46:23;;;;;;;12.77;4.00;;;10.10;99.90;;;;;;6215012;23;20066;-86
2023/04/25 10:48:51;;;;;;;12.35;3.42;;;10.30;99.90;;;;;;6188899;23;20238;-85
2023/04/25 10:51:31;;;;;;;10.20;3.67;;;10.50;99.90;;;;;;6188526;23;20009;-85
2023/04/25 10:54:00;;;;;;;8.88;2.85;;;10.80;99.90;;;;;;6215275;23;20440;-85
2023/04/25 10:56:26;;;;;;;11.55;3.00;;;11.10;99.00;;;;;;6189154;23;20012;-86
2023/04/25 10:59:02;;;;;;;6.88;2.88;;;11.00;97.80;;;;;;6188690;23;20005;-86
2023/04/25 11:01:42;;;;;;;9.00;2.95;;;10.90;98.00;;;;;;6188781;23;20004;-86
2023/04/25 11:04:22;;;;;;;11.57;3.65;;;10.90;98.70;;;;;;6187852;23;20027;-86
2023/04/25 11:07:18;;;;;;;7.78;2.88;;;11.30;99.60;;;;;;6174159;23;20871;-89
2023/04/25 11:09:45;;;;;;;8.75;2.83;;;11.40;98.40;;;;;;6173160;23;20015;-87
2023/04/25 11:12:14;;;;;;;19.77;3.95;;;11.90;99.90;;;;;;6173146;23;20004;-83
2023/04/25 11:14:41;;;;;;;8.23;3.15;;;12.20;99.10;;;;;;6172701;23;20198;-88
2023/04/25 11:23:07;;;;;;;9.55;3.40;;;12.30;98.70;;;;;;6163975;22;20079;-77
2023/04/25 11:25:33;;;;;;;9.00;3.63;;;12.40;98.00;;;;;;6198294;23;20395;-87
2023/04/25 11:28:01;;;;;;;9.75;3.88;;;12.40;98.80;;;;;;6199079;23;20420;-87
2023/04/25 11:30:30;;;;;;;14.52;3.80;;;12.60;98.60;;;;;;6198923;23;20564;-85
2023/04/25 11:32:55;;;;;;;13.57;3.95;;;12.40;98.20;;;;;;6197580;23;20326;-87
2023/04/25 11:35:22;;;;;;;15.63;4.00;;;12.00;98.20;;;;;;6170084;23;20000;-88
2023/04/25 11:37:49;;;;;;;13.55;3.65;;;11.40;98.80;;;;;;6170847;23;20015;-88
2023/04/25 11:40:15;;;;;;;12.00;4.25;;;11.70;99.70;;;;;;6197631;23;20028;-83
2023/04/25 11:42:45;;;;;;;12.52;3.65;;;11.60;99.20;;;;;;6197236;23;20102;-84
2023/04/25 11:45:11;;;;;;;8.30;3.90;;;11.80;98.70;;;;;;6200803;23;20013;-83
2023/04/25 11:47:37;;;;;;;12.73;4.18;;;11.70;98.70;;;;;;6210197;23;20000;-83
2023/04/25 11:50:05;;;;;;;10.70;3.80;;;11.20;99.40;;;;;;6213692;23;20063;-84
2023/04/25 11:52:38;;;;;;;7.70;3.38;;;11.20;98.70;;;;;;6214285;23;20088;-84
2023/04/25 11:55:07;;;;;;;8.80;3.38;;;11.20;98.80;;;;;;6212683;23;20027;-83
2023/04/25 11:57:33;;;;;;;8.05;3.40;;;11.40;99.40;;;;;;6214056;23;20037;-84
2023/04/25 12:00:08;;;;;;;9.70;3.25;;;11.90;99.90;;;;;;6214728;23;20008;-84
2023/04/25 12:02:40;;;;;;;9.30;3.30;;;11.90;99.30;;;;;;6216656;23;20011;-85
2023/04/25 12:05:08;;;;;;;9.05;3.25;;;11.90;98.00;;;;;;6188664;23;20509;-85
2023/04/25 12:07:34;;;;;;;12.93;4.30;;;11.90;98.60;;;;;;6214607;23;20005;-84
2023/04/25 12:10:03;;;;;;;11.13;3.53;;;11.70;98.90;;;;;;6214871;23;20074;-84
2023/04/25 12:12:33;;;;;;;15.97;4.07;;;11.40;98.90;;;;;;6215338;23;20000;-84
2023/04/25 12:15:12;;;;;;;13.32;4.68;;;11.10;99.20;;;;;;6215879;23;20036;-84
2023/04/25 12:17:38;;;;;;;14.68;4.07;;;11.30;99.90;;;;;;6188148;23;20001;-84
2023/04/25 12:20:13;;;;;;;12.35;3.67;;;11.30;99.40;;;;;;6217021;23;20083;-86
2023/04/25 12:22:44;;;;;;;10.00;3.42;;;11.20;99.90;;;;;;6239869;23;20012;-85
2023/04/25 12:25:29;;;;;;;10.50;3.85;;;11.50;99.40;;;;;;6240491;22;20052;-85
2023/04/25 12:27:54;;;;;;;10.88;3.65;;;11.40;97.90;;;;;;6242185;22;19992;-84
2023/04/25 12:30:20;;;;;;;11.02;3.35;;;11.30;98.40;;;;;;6224679;22;20072;-84
2023/04/25 12:32:45;;;;;;;9.73;3.08;;;11.60;99.70;;;;;;6188011;23;20049;-84
2023/04/25 12:35:11;;;;;;;13.25;3.30;;;11.70;99.50;;;;;;6188929;23;20001;-84
2023/04/25 12:37:36;;;;;;;12.63;3.75;;;12.30;99.90;;;;;;6216405;23;20012;-84
2023/04/25 12:40:04;;;;;;;9.10;3.20;;;13.00;99.20;;;;;;6214290;23;20443;-84
2023/04/25 12:42:29;;;;;;;13.48;2.80;;;12.70;98.60;;;;;;6215005;23;19997;-84
2023/04/25 12:44:55;;;;;;;8.13;2.65;;;13.00;98.30;;;;;;6215623;23;20018;-83
2023/04/25 12:47:20;;;;;;;9.60;3.22;;;13.10;96.70;;;;;;6215610;23;20007;-83
2023/04/25 12:49:46;;;;;;;15.38;3.40;;;13.00;96.70;;;;;;6214934;23;20103;-84
2023/04/25 12:52:11;;;;;;;9.23;2.80;;;12.70;96.50;;;;;;6215522;23;20004;-84
2023/04/25 12:54:38;;;;;;;11.85;3.03;;;12.50;96.70;;;;;;6214656;23;20443;-84
2023/04/25 12:57:04;;;;;;;12.27;3.67;;;12.20;97.80;;;;;;6188670;23;20012;-84